Time;durP1;ratioP1;P1;durP2;ratioP2;P2;SDS_P1;SDS_P2;PMS_P1;PMS_P2;Temp;Humidity;BMP_temperature;BMP_pressure;BME280_temperature;BME280_humidity;BME280_pressure;Samples;Min_cycle;Max_cycle;Signal;HPM_P1;HPM_P2
2022/04/24 00:01:12;;;;;;;8.48;5.30;;;;;;;12.70;46.69;98056.22;5076115;28;20045;-68
2022/04/24 00:03:40;;;;;;;7.35;4.63;;;;;;;12.66;46.97;98056.50;5095140;28;20530;-67
2022/04/24 00:06:06;;;;;;;9.48;5.50;;;;;;;12.61;46.71;98050.78;5094416;28;20059;-67
2022/04/24 00:08:31;;;;;;;8.18;5.18;;;;;;;12.59;47.00;98047.41;5075150;28;20071;-67
2022/04/24 00:10:56;;;;;;;8.73;5.68;;;;;;;12.57;46.86;98046.69;5090556;27;20123;-68
2022/04/24 00:13:24;;;;;;;7.20;5.40;;;;;;;12.54;46.76;98049.63;5088802;27;20061;-67
2022/04/24 00:15:50;;;;;;;6.60;4.40;;;;;;;12.53;46.45;98047.94;5102779;27;20023;-67
2022/04/24 00:18:16;;;;;;;7.07;5.40;;;;;;;12.46;47.40;98047.63;5097188;27;20114;-66
2022/04/24 00:20:42;;;;;;;7.65;5.00;;;;;;;12.41;46.78;98043.72;5109632;27;20028;-66
2022/04/24 00:23:08;;;;;;;8.43;5.60;;;;;;;12.37;47.28;98048.41;5092191;28;20059;-65
2022/04/24 00:25:33;;;;;;;7.13;4.82;;;;;;;12.34;47.00;98047.84;5092401;28;20617;-66
2022/04/24 00:28:01;;;;;;;7.60;5.70;;;;;;;12.35;47.06;98044.22;5092018;28;20040;-67
2022/04/24 00:30:26;;;;;;;10.95;4.80;;;;;;;12.31;47.21;98048.94;5091876;28;20094;-67
2022/04/24 00:32:51;;;;;;;8.50;5.63;;;;;;;12.28;47.29;98043.03;5090541;28;20032;-66
2022/04/24 00:35:17;;;;;;;6.28;5.05;;;;;;;12.24;47.63;98040.66;5091848;28;20028;-67
2022/04/24 00:37:42;;;;;;;6.68;4.28;;;;;;;12.19;47.76;98039.38;5091050;28;20047;-67
2022/04/24 00:40:08;;;;;;;7.10;4.57;;;;;;;12.16;47.29;98045.78;5092795;28;20032;-67
2022/04/24 00:42:33;;;;;;;7.47;5.20;;;;;;;12.09;47.36;98039.31;5093498;28;20397;-67
2022/04/24 00:44:59;;;;;;;8.05;5.00;;;;;;;12.06;47.52;98041.38;5093807;28;20059;-67
2022/04/24 00:47:24;;;;;;;5.80;4.57;;;;;;;12.02;47.82;98038.16;5095185;28;20115;-67
2022/04/24 00:49:50;;;;;;;7.68;4.63;;;;;;;11.99;47.84;98033.13;5094990;28;20387;-67
2022/04/24 00:52:16;;;;;;;5.25;4.75;;;;;;;11.93;48.04;98033.63;5092141;28;20424;-67
2022/04/24 00:54:42;;;;;;;8.50;4.25;;;;;;;11.91;47.82;98038.19;5091778;28;20484;-67
2022/04/24 00:57:12;;;;;;;6.45;5.05;;;;;;;11.88;48.23;98030.53;5092366;28;20036;-68
2022/04/24 00:59:37;;;;;;;7.32;5.15;;;;;;;11.83;48.05;98029.06;5090368;28;20039;-68
2022/04/24 01:02:04;;;;;;;8.40;4.90;;;;;;;11.80;47.92;98029.31;5081186;28;20045;-66
2022/04/24 01:04:30;;;;;;;5.90;4.65;;;;;;;11.80;48.28;98029.31;5090430;28;20101;-66
2022/04/24 01:06:55;;;;;;;5.28;4.53;;;;;;;11.80;47.88;98017.94;5090403;28;20063;-67
2022/04/24 01:09:23;;;;;;;6.72;4.65;;;;;;;11.80;47.90;98023.22;5090083;28;20054;-68
2022/04/24 01:11:51;;;;;;;6.68;4.95;;;;;;;11.78;48.21;98019.88;5089538;28;20039;-68
2022/04/24 01:14:17;;;;;;;6.88;4.68;;;;;;;11.76;48.07;98019.16;5088695;28;20039;-68
2022/04/24 01:16:44;;;;;;;6.43;4.47;;;;;;;11.73;48.24;98024.69;5090167;28;20503;-68
2022/04/24 01:19:10;;;;;;;7.38;4.85;;;;;;;11.72;48.30;98015.94;5090596;28;20037;-69
2022/04/24 01:21:36;;;;;;;9.80;4.78;;;;;;;11.68;48.29;98022.41;5089649;28;20031;-69
2022/04/24 01:24:05;;;;;;;5.60;4.82;;;;;;;11.70;48.12;98022.31;5090306;28;20028;-69
2022/04/24 01:26:31;;;;;;;5.93;4.18;;;;;;;11.67;47.82;98012.84;5090098;28;20571;-69
2022/04/24 01:28:57;;;;;;;5.38;4.72;;;;;;;11.67;48.20;98018.13;5089665;28;20093;-67
2022/04/24 01:31:22;;;;;;;5.97;4.53;;;;;;;11.65;48.29;98013.94;5089565;28;20526;-69
2022/04/24 01:33:47;;;;;;;6.20;4.68;;;;;;;11.60;48.42;98014.31;5089641;28;20032;-70
2022/04/24 01:36:13;;;;;;;5.32;4.05;;;;;;;11.58;48.40;98018.88;5089662;28;20714;-69
2022/04/24 01:38:42;;;;;;;8.35;4.13;;;;;;;11.53;48.73;98016.59;5090095;28;22380;-69
2022/04/24 01:41:08;;;;;;;5.45;4.43;;;;;;;11.51;49.29;98020.31;5089240;28;20036;-70
2022/04/24 01:43:36;;;;;;;5.70;4.45;;;;;;;11.48;49.35;98013.50;5089858;28;20115;-69
2022/04/24 01:46:06;;;;;;;7.22;4.20;;;;;;;11.43;49.03;98022.75;5089675;28;20040;-69
2022/04/24 01:48:34;;;;;;;5.90;5.07;;;;;;;11.39;49.24;98024.78;5089740;28;20090;-68
2022/04/24 01:51:01;;;;;;;7.13;3.67;;;;;;;11.38;49.48;98023.13;5088525;28;20043;-68
2022/04/24 01:53:28;;;;;;;8.55;5.68;;;;;;;11.32;49.62;98021.81;5089492;28;20024;-69
2022/04/24 01:55:57;;;;;;;6.22;4.78;;;;;;;11.34;49.68;98027.78;5089770;28;20654;-69
2022/04/24 01:58:24;;;;;;;6.28;4.30;;;;;;;11.30;49.74;98020.28;5089173;28;20577;-69
2022/04/24 02:00:49;;;;;;;6.88;4.68;;;;;;;11.25;50.28;98017.13;5088858;28;20032;-68
2022/04/24 02:03:15;;;;;;;6.68;4.57;;;;;;;11.17;50.31;98015.13;5089091;28;20028;-69
2022/04/24 02:05:40;;;;;;;11.27;4.53;;;;;;;11.18;50.21;98017.66;5090079;28;20032;-69
2022/04/24 02:08:05;;;;;;;6.90;5.22;;;;;;;11.17;50.25;98015.97;5089535;28;20032;-68
2022/04/24 02:10:32;;;;;;;5.22;4.60;;;;;;;11.12;50.33;98012.00;5087872;28;20059;-69
2022/04/24 02:12:57;;;;;;;10.40;4.30;;;;;;;11.11;50.05;98015.63;5088973;28;20043;-69
2022/04/24 02:15:23;;;;;;;8.63;4.32;;;;;;;11.12;50.32;98017.28;5089638;28;20032;-69
2022/04/24 02:17:48;;;;;;;7.40;4.88;;;;;;;11.08;50.96;98016.72;5088031;28;20036;-68
2022/04/24 02:20:13;;;;;;;5.53;4.13;;;;;;;11.07;50.15;98017.66;5089067;28;20088;-68
2022/04/24 02:22:39;;;;;;;7.63;4.13;;;;;;;11.05;50.54;98019.59;5089197;28;20156;-68
2022/04/24 02:25:04;;;;;;;11.02;4.78;;;;;;;11.03;50.34;98015.41;5089397;28;20505;-67
2022/04/24 02:27:30;;;;;;;4.75;3.97;;;;;;;10.99;50.70;98019.25;5087668;28;20093;-67
2022/04/24 02:29:56;;;;;;;6.95;3.58;;;;;;;10.96;50.58;98017.69;5089500;28;20507;-67
2022/04/24 02:32:21;;;;;;;7.57;4.40;;;;;;;10.93;50.36;98018.78;5088560;28;20028;-67
2022/04/24 02:34:47;;;;;;;5.70;4.55;;;;;;;10.91;51.08;98019.84;5089238;28;20028;-67
2022/04/24 02:37:13;;;;;;;7.07;4.80;;;;;;;10.86;51.29;98024.66;5089098;28;20032;-68
2022/04/24 02:39:38;;;;;;;7.90;4.78;;;;;;;10.80;51.70;98017.22;5089758;28;20031;-68
2022/04/24 02:42:04;;;;;;;8.90;4.70;;;;;;;10.78;52.06;98021.75;5090461;28;20114;-68
2022/04/24 02:44:29;;;;;;;8.27;4.03;;;;;;;10.75;52.05;98022.84;5092413;28;20032;-68
2022/04/24 02:46:54;;;;;;;6.15;3.60;;;;;;;10.72;51.56;98017.81;5093244;28;20048;-66
2022/04/24 02:49:20;;;;;;;8.05;4.70;;;;;;;10.65;51.88;98025.34;5095775;28;20602;-65
2022/04/24 02:51:45;;;;;;;7.03;4.38;;;;;;;10.56;52.06;98025.22;5094778;28;20396;-67
2022/04/24 02:54:11;;;;;;;7.80;4.75;;;;;;;10.52;53.05;98030.75;5095869;28;20032;-66
2022/04/24 02:56:36;;;;;;;9.65;4.63;;;;;;;10.47;52.79;98024.16;5095605;28;20032;-66
2022/04/24 02:59:02;;;;;;;9.57;4.95;;;;;;;10.47;53.84;98027.63;5094923;28;20036;-66
2022/04/24 03:01:30;;;;;;;6.95;5.15;;;;;;;10.38;53.60;98027.50;5092905;28;20050;-67
2022/04/24 03:03:57;;;;;;;6.22;4.93;;;;;;;10.31;54.34;98025.34;5095413;28;20103;-66
2022/04/24 03:06:23;;;;;;;7.72;5.03;;;;;;;10.29;54.20;98029.03;5094848;28;20034;-66
2022/04/24 03:08:48;;;;;;;5.90;3.90;;;;;;;10.24;54.74;98021.47;5095704;28;20028;-66
2022/04/24 03:11:17;;;;;;;5.05;4.05;;;;;;;10.21;54.34;98020.84;5094938;28;20437;-66
2022/04/24 03:13:43;;;;;;;5.75;4.40;;;;;;;10.20;53.54;98020.00;5095538;28;20115;-66
2022/04/24 03:16:09;;;;;;;9.35;4.68;;;;;;;10.19;54.00;98028.00;5095557;28;20074;-66
2022/04/24 03:18:34;;;;;;;8.02;4.05;;;;;;;10.17;54.19;98033.41;5094687;28;20081;-65
2022/04/24 03:21:00;;;;;;;5.78;4.55;;;;;;;10.15;54.06;98029.22;5091865;28;20036;-67
2022/04/24 03:23:25;;;;;;;8.38;5.10;;;;;;;10.09;54.22;98023.47;5093519;28;20028;-66
2022/04/24 03:25:51;;;;;;;8.50;4.45;;;;;;;10.06;54.35;98021.03;5094836;28;20091;-66
2022/04/24 03:28:17;;;;;;;9.30;5.00;;;;;;;10.00;54.88;98024.16;5096516;28;20035;-65
2022/04/24 03:30:42;;;;;;;7.35;4.90;;;;;;;9.93;55.98;98020.28;5095932;28;20043;-64
2022/04/24 03:33:08;;;;;;;7.30;5.07;;;;;;;9.85;54.96;98028.78;5097086;28;20032;-67
2022/04/24 03:35:33;;;;;;;6.70;4.68;;;;;;;9.85;54.81;98022.66;5096121;28;20059;-66
2022/04/24 03:37:59;;;;;;;5.60;3.60;;;;;;;9.82;55.06;98020.25;5094558;28;20131;-67
2022/04/24 03:40:24;;;;;;;5.95;4.80;;;;;;;9.77;55.65;98022.38;5093043;28;20035;-66
2022/04/24 03:42:49;;;;;;;5.93;5.05;;;;;;;9.67;56.47;98019.59;5092689;28;20483;-67
2022/04/24 03:45:15;;;;;;;7.40;5.03;;;;;;;9.65;56.38;98032.03;5092474;28;20044;-68
2022/04/24 03:47:40;;;;;;;6.55;4.78;;;;;;;9.54;56.81;98034.63;5093156;28;20040;-67
2022/04/24 03:50:06;;;;;;;7.20;4.50;;;;;;;9.56;57.01;98028.28;5092318;28;20043;-69
2022/04/24 03:52:32;;;;;;;7.10;4.90;;;;;;;9.52;56.56;98024.19;5091548;28;20036;-67
2022/04/24 03:54:58;;;;;;;6.28;5.15;;;;;;;9.50;57.00;98028.75;5092467;28;20036;-66
2022/04/24 03:57:23;;;;;;;6.28;4.22;;;;;;;9.49;56.88;98023.59;5093575;28;20035;-67
2022/04/24 03:59:49;;;;;;;27.63;5.75;;;;;;;9.50;56.24;98023.50;5092716;28;20119;-66
2022/04/24 04:02:14;;;;;;;5.13;4.28;;;;;;;9.46;56.87;98027.28;5091567;28;20028;-67
2022/04/24 04:04:39;;;;;;;7.00;5.65;;;;;;;9.40;57.71;98025.09;5096643;28;20051;-68
2022/04/24 04:07:05;;;;;;;7.35;5.25;;;;;;;9.33;58.49;98031.75;5096234;28;20058;-67
2022/04/24 04:09:31;;;;;;;5.65;4.40;;;;;;;9.29;57.68;98025.03;5094292;28;20032;-67
2022/04/24 04:11:57;;;;;;;8.82;5.13;;;;;;;9.27;57.80;98030.41;5084022;28;20028;-68
2022/04/24 04:14:22;;;;;;;9.48;6.35;;;;;;;9.21;58.88;98033.47;5084332;28;20036;-68
2022/04/24 04:16:49;;;;;;;6.88;4.97;;;;;;;9.17;58.07;98030.22;5091452;28;20040;-68
2022/04/24 04:19:14;;;;;;;10.02;5.25;;;;;;;9.12;58.91;98037.59;5091483;28;20073;-68
2022/04/24 04:21:40;;;;;;;8.00;5.38;;;;;;;9.05;58.83;98032.91;5091883;28;20032;-68
2022/04/24 04:24:08;;;;;;;8.25;5.32;;;;;;;8.96;59.50;98039.66;5091789;28;20039;-69
2022/04/24 04:26:33;;;;;;;8.15;5.25;;;;;;;8.86;59.86;98035.97;5091881;28;20475;-67
2022/04/24 04:28:58;;;;;;;10.68;5.32;;;;;;;8.87;60.41;98049.00;5091553;28;20034;-68
2022/04/24 04:31:24;;;;;;;10.43;5.68;;;;;;;8.79;60.78;98054.81;5090511;28;20119;-68
2022/04/24 04:33:49;;;;;;;8.98;5.57;;;;;;;8.73;60.48;98052.59;5091148;28;20077;-68
2022/04/24 04:36:14;;;;;;;7.90;5.70;;;;;;;8.70;60.85;98058.06;5091211;28;20028;-69
2022/04/24 04:38:40;;;;;;;10.90;6.40;;;;;;;8.70;60.91;98062.50;5091449;28;20036;-69
2022/04/24 04:41:05;;;;;;;10.70;5.85;;;;;;;8.64;61.37;98058.50;5090311;28;20376;-69
2022/04/24 04:43:31;;;;;;;12.55;6.90;;;;;;;8.57;61.43;98058.09;5090674;28;20039;-69
2022/04/24 04:45:56;;;;;;;14.95;6.70;;;;;;;8.52;61.95;98070.69;5090340;28;20050;-69
2022/04/24 04:48:22;;;;;;;10.57;7.25;;;;;;;8.48;62.16;98071.00;5090607;28;20105;-68
2022/04/24 04:50:47;;;;;;;10.70;6.82;;;;;;;8.44;62.56;98067.75;5090561;28;20484;-69
2022/04/24 04:53:12;;;;;;;9.02;7.00;;;;;;;8.42;62.49;98074.91;5090175;28;20517;-68
2022/04/24 04:55:38;;;;;;;7.90;6.25;;;;;;;8.38;62.38;98079.47;5091108;28;20051;-69
2022/04/24 04:58:03;;;;;;;11.45;7.20;;;;;;;8.38;62.37;98079.47;5088976;28;20040;-69
2022/04/24 05:00:29;;;;;;;7.20;5.80;;;;;;;8.37;62.93;98076.97;5088555;28;20054;-68
2022/04/24 05:02:54;;;;;;;9.02;6.65;;;;;;;8.45;62.95;98081.72;5088919;28;20036;-69
2022/04/24 05:05:19;;;;;;;9.27;5.80;;;;;;;8.47;62.31;98090.34;5089873;28;20460;-69
2022/04/24 05:07:45;;;;;;;13.02;6.53;;;;;;;8.52;62.54;98088.25;5088990;28;20028;-70
2022/04/24 05:10:10;;;;;;;7.38;5.82;;;;;;;8.63;62.62;98101.47;5090507;28;20032;-70
2022/04/24 05:12:36;;;;;;;9.07;6.95;;;;;;;8.77;61.52;98092.66;5089843;28;20142;-69
2022/04/24 05:15:04;;;;;;;10.13;5.38;;;;;;;8.89;61.23;98104.09;5089955;28;20044;-69
2022/04/24 05:17:29;;;;;;;8.65;5.70;;;;;;;9.13;60.30;98097.13;5090255;28;20097;-69
2022/04/24 05:19:55;;;;;;;6.90;5.50;;;;;;;9.34;59.71;98101.81;5090096;28;20036;-69
2022/04/24 05:22:21;;;;;;;8.82;5.80;;;;;;;9.53;59.04;98093.44;5088111;28;20641;-69
2022/04/24 05:24:46;;;;;;;7.43;5.60;;;;;;;9.70;59.42;98100.97;5090069;28;20119;-68
2022/04/24 05:27:12;;;;;;;11.73;7.38;;;;;;;9.84;58.17;98099.94;5089986;28;20115;-68
2022/04/24 05:29:37;;;;;;;8.85;6.53;;;;;;;9.96;57.67;98100.81;5089661;28;20034;-69
2022/04/24 05:32:02;;;;;;;11.40;7.20;;;;;;;10.06;57.04;98102.66;5089260;28;20050;-67
2022/04/24 05:34:28;;;;;;;11.25;6.97;;;;;;;10.17;56.57;98099.25;5089974;28;20028;-69
2022/04/24 05:36:53;;;;;;;10.05;6.82;;;;;;;10.20;56.14;98101.66;5089998;28;20051;-69
2022/04/24 05:39:19;;;;;;;14.30;7.45;;;;;;;10.24;56.23;98099.63;5089787;28;20036;-69
2022/04/24 05:41:45;;;;;;;8.15;6.28;;;;;;;10.30;56.36;98093.91;5089321;28;20108;-68
2022/04/24 05:44:10;;;;;;;7.03;6.10;;;;;;;10.39;56.50;98101.13;5090382;28;20032;-70
2022/04/24 05:46:35;;;;;;;9.68;7.35;;;;;;;10.48;55.54;98102.22;5090466;28;20575;-68
2022/04/24 05:49:02;;;;;;;19.52;7.13;;;;;;;10.50;55.75;98103.78;5090797;28;20479;-68
2022/04/24 05:51:28;;;;;;;11.75;8.35;;;;;;;10.64;55.22;98112.44;5089618;28;20040;-69
2022/04/24 05:53:54;;;;;;;8.27;7.03;;;;;;;10.70;54.77;98114.59;5089726;28;20104;-69
2022/04/24 05:56:20;;;;;;;7.20;6.25;;;;;;;10.79;54.62;98110.44;5089071;28;20040;-68
2022/04/24 05:58:45;;;;;;;10.25;6.78;;;;;;;10.85;54.23;98112.59;5089422;28;20548;-68
2022/04/24 06:01:11;;;;;;;8.15;7.20;;;;;;;10.99;53.83;98114.16;5089097;28;20032;-68
2022/04/24 06:03:40;;;;;;;12.43;7.03;;;;;;;11.09;53.21;98115.13;5089388;28;20428;-69
2022/04/24 06:06:06;;;;;;;8.43;7.30;;;;;;;11.21;53.09;98121.25;5089305;28;20047;-65
2022/04/24 06:08:32;;;;;;;9.85;7.22;;;;;;;11.22;52.98;98115.00;5089402;28;22478;-68
2022/04/24 06:10:57;;;;;;;11.48;6.78;;;;;;;11.07;53.11;98117.03;5089029;28;20028;-67
2022/04/24 06:13:22;;;;;;;8.25;6.70;;;;;;;10.95;53.07;98122.31;5088773;28;20622;-68
2022/04/24 06:15:48;;;;;;;8.38;6.90;;;;;;;10.99;53.12;98122.06;5091130;28;20028;-68
2022/04/24 06:18:13;;;;;;;7.97;6.97;;;;;;;11.06;53.09;98118.84;5093661;28;20046;-65
2022/04/24 06:20:39;;;;;;;9.52;6.85;;;;;;;11.27;52.23;98112.81;5093616;28;20036;-67
2022/04/24 06:23:04;;;;;;;15.95;7.82;;;;;;;11.66;51.11;98111.44;5092976;28;20119;-68
2022/04/24 06:25:34;;;;;;;10.50;7.38;;;;;;;11.91;50.61;98109.50;5093535;28;20034;-67
2022/04/24 06:28:01;;;;;;;8.73;7.72;;;;;;;11.93;50.11;98112.84;5093587;28;20114;-66
2022/04/24 06:30:29;;;;;;;7.70;6.90;;;;;;;12.13;49.82;98119.13;5093177;28;20028;-69
2022/04/24 06:32:55;;;;;;;10.05;7.55;;;;;;;12.44;49.09;98117.44;5092889;28;20063;-69
2022/04/24 06:35:21;;;;;;;8.07;7.07;;;;;;;12.36;48.82;98117.25;5093520;28;20627;-69
2022/04/24 06:37:49;;;;;;;8.05;6.60;;;;;;;12.29;49.27;98124.00;5093148;28;20115;-70
2022/04/24 06:40:16;;;;;;;10.60;7.95;;;;;;;12.39;48.92;98122.28;5093038;28;20039;-69
2022/04/24 06:42:55;;;;;;;7.70;6.95;;;;;;;12.60;48.07;98120.47;5092994;28;20047;-68
2022/04/24 06:45:27;;;;;;;6.95;6.25;;;;;;;12.64;48.11;98119.22;5092727;28;20492;-68
2022/04/24 06:47:56;;;;;;;8.80;7.90;;;;;;;12.94;47.78;98117.59;5092562;28;20028;-67
2022/04/24 06:50:22;;;;;;;13.45;7.88;;;;;;;13.04;47.33;98118.50;5092696;28;20032;-68
2022/04/24 06:53:05;;;;;;;12.98;7.03;;;;;;;13.23;46.98;98124.84;5092504;28;20407;-68
2022/04/24 06:55:35;;;;;;;8.38;6.68;;;;;;;13.47;46.85;98116.59;5092863;28;20065;-69
2022/04/24 06:58:03;;;;;;;9.15;7.80;;;;;;;13.60;46.52;98119.81;5092645;28;20039;-68
2022/04/24 07:00:30;;;;;;;8.60;7.28;;;;;;;13.35;47.50;98122.97;5092523;28;20028;-69
2022/04/24 07:02:56;;;;;;;10.20;7.45;;;;;;;13.43;47.03;98125.78;5092185;28;20032;-67
2022/04/24 07:05:25;;;;;;;12.38;8.60;;;;;;;13.69;47.05;98126.97;5092206;28;20038;-67
2022/04/24 07:07:51;;;;;;;8.88;7.93;;;;;;;14.13;46.55;98123.97;5092667;28;20039;-69
2022/04/24 07:10:17;;;;;;;10.48;8.02;;;;;;;14.42;45.36;98134.53;5092330;28;20032;-68
2022/04/24 07:12:50;;;;;;;13.15;8.43;;;;;;;14.19;45.45;98126.03;5090498;28;20039;-69
2022/04/24 07:15:17;;;;;;;9.40;7.13;;;;;;;14.01;45.79;98128.56;5092420;28;20028;-69
2022/04/24 07:17:46;;;;;;;11.20;8.23;;;;;;;14.24;45.85;98128.28;5097936;28;20050;-69
2022/04/24 07:20:14;;;;;;;13.18;7.82;;;;;;;14.27;45.49;98123.53;5097744;28;20044;-68
2022/04/24 07:22:58;;;;;;;9.90;8.52;;;;;;;14.49;44.93;98126.88;5095138;28;20086;-69
2022/04/24 07:25:28;;;;;;;9.52;8.63;;;;;;;14.29;45.20;98131.34;5093231;28;20039;-66
2022/04/24 07:27:54;;;;;;;10.73;8.30;;;;;;;14.38;44.60;98133.16;5092125;28;20123;-66
2022/04/24 07:30:21;;;;;;;9.20;8.05;;;;;;;14.73;44.42;98127.28;5092382;28;20074;-66
2022/04/24 07:32:51;;;;;;;9.95;8.13;;;;;;;14.78;44.29;98137.47;5092492;28;20035;-66
2022/04/24 07:35:19;;;;;;;8.88;7.97;;;;;;;14.88;45.08;98130.31;5092182;28;20051;-58
2022/04/24 07:37:45;;;;;;;8.30;7.50;;;;;;;15.45;44.03;98143.53;5093295;28;20028;-59
2022/04/24 07:40:13;;;;;;;9.02;7.82;;;;;;;15.38;43.10;98145.09;5093158;28;20113;-62
2022/04/24 07:42:48;;;;;;;9.73;8.30;;;;;;;15.44;43.06;98141.88;5093059;28;20028;-60
2022/04/24 07:45:24;;;;;;;8.52;7.55;;;;;;;15.50;42.65;98157.22;5093065;28;20062;-60
2022/04/24 07:47:50;;;;;;;;;;;;;;;15.75;42.39;98147.78;5093528;28;20024;-59
2022/04/24 07:50:16;;;;;;;;;;;;;;;15.73;42.90;98146.25;5092521;28;19961;-59
2022/04/24 07:52:41;;;;;;;11.50;7.97;;;;;;;16.00;41.69;98142.72;5093297;28;19915;-60
2022/04/24 07:55:08;;;;;;;10.25;8.00;;;;;;;16.25;45.24;98141.97;5091027;28;20483;-62
2022/04/24 07:57:33;;;;;;;11.15;8.75;;;;;;;16.64;43.00;98140.81;5093832;28;20028;-62
2022/04/24 07:59:59;;;;;;;11.07;8.77;;;;;;;16.60;42.58;98139.44;5091683;28;20061;-63
2022/04/24 08:02:24;;;;;;;12.32;7.90;;;;;;;16.82;40.54;98138.97;5075823;28;20028;-62
2022/04/24 08:04:49;;;;;;;12.43;9.50;;;;;;;16.58;40.44;98142.25;5070020;28;20032;-61
2022/04/24 08:07:15;;;;;;;10.80;9.00;;;;;;;16.93;39.83;98140.53;5076131;28;20060;-63
2022/04/24 08:09:41;;;;;;;10.10;8.27;;;;;;;17.28;39.77;98150.25;5091163;28;20673;-64
2022/04/24 08:12:07;;;;;;;10.18;8.63;;;;;;;17.15;40.07;98148.00;5089104;28;20040;-60
2022/04/24 08:14:33;;;;;;;10.68;8.57;;;;;;;16.91;39.50;98143.38;5088209;28;20566;-63
2022/04/24 08:16:58;;;;;;;11.10;8.15;;;;;;;16.78;40.07;98150.03;5088247;28;20043;-61
2022/04/24 08:19:24;;;;;;;9.70;8.70;;;;;;;16.73;39.64;98153.16;5088561;28;20040;-61
2022/04/24 08:21:49;;;;;;;9.10;7.82;;;;;;;16.94;40.48;98152.88;5087021;28;20031;-58
2022/04/24 08:24:15;;;;;;;10.43;8.70;;;;;;;17.20;38.68;98152.84;5085281;28;20521;-60
2022/04/24 08:26:40;;;;;;;9.43;8.15;;;;;;;17.22;39.00;98155.34;5087113;28;20032;-65
2022/04/24 08:29:05;;;;;;;10.07;8.55;;;;;;;17.18;39.00;98157.50;5087487;28;20110;-65
2022/04/24 08:31:31;;;;;;;9.15;8.20;;;;;;;17.49;38.73;98149.81;5085509;28;20115;-68
2022/04/24 08:33:57;;;;;;;13.88;8.65;;;;;;;17.48;38.47;98171.31;5085552;28;20055;-69
2022/04/24 08:36:25;;;;;;;9.50;8.60;;;;;;;17.18;38.94;98157.50;5086922;28;20148;-68
2022/04/24 08:38:51;;;;;;;10.00;8.85;;;;;;;17.04;39.64;98150.09;5088487;28;20503;-68
2022/04/24 08:41:21;;;;;;;10.93;9.20;;;;;;;17.35;38.99;98161.06;5086816;28;20105;-68
2022/04/24 08:43:47;;;;;;;12.40;8.60;;;;;;;17.35;39.03;98158.41;5086109;28;20395;-69
2022/04/24 08:46:12;;;;;;;11.48;10.25;;;;;;;17.50;38.68;98159.50;5086962;28;20040;-70
2022/04/24 08:48:41;;;;;;;12.48;8.70;;;;;;;17.86;37.98;98163.84;5086321;28;20039;-68
2022/04/24 08:51:10;;;;;;;10.43;8.55;;;;;;;18.04;38.03;98161.91;5085381;28;20535;-67
2022/04/24 08:53:36;;;;;;;11.13;9.70;;;;;;;17.78;38.35;98169.94;5085068;28;20032;-69
2022/04/24 08:56:01;;;;;;;12.80;8.65;;;;;;;17.94;38.29;98161.19;5087406;28;20040;-68
2022/04/24 08:58:27;;;;;;;13.25;9.38;;;;;;;17.72;38.19;98158.09;5086029;28;20213;-68
2022/04/24 09:00:52;;;;;;;10.32;8.57;;;;;;;17.80;38.00;98163.50;5087000;28;20040;-67
2022/04/24 09:03:17;;;;;;;9.57;8.52;;;;;;;17.97;37.68;98161.72;5086826;28;20488;-67
2022/04/24 09:05:43;;;;;;;12.10;10.82;;;;;;;17.74;37.59;98168.59;5087222;28;20028;-67
2022/04/24 09:08:10;;;;;;;10.07;9.05;;;;;;;17.52;38.04;98170.84;5086998;28;20389;-69
2022/04/24 09:10:56;;;;;;;13.07;8.80;;;;;;;17.60;37.73;98170.03;5085951;28;20558;-68
2022/04/24 09:16:38;;;;;;;10.68;9.45;;;;;;;17.96;37.55;98170.69;5059345;28;20108;-68
2022/04/24 09:19:14;;;;;;;10.95;9.00;;;;;;;17.78;37.65;98167.28;5084697;28;20032;-69
2022/04/24 09:21:39;;;;;;;9.57;8.32;;;;;;;18.43;36.76;98171.94;5084590;28;20040;-70
2022/04/24 09:24:05;;;;;;;10.35;9.35;;;;;;;18.42;35.90;98170.28;5083210;28;20042;-69
2022/04/24 09:26:30;;;;;;;12.73;9.38;;;;;;;18.64;35.05;98174.16;5084674;28;20032;-68
2022/04/24 09:28:56;;;;;;;9.85;8.82;;;;;;;18.75;35.14;98163.13;5085304;28;20040;-69
2022/04/24 09:31:28;;;;;;;12.23;8.57;;;;;;;19.65;33.78;98164.81;5084189;28;20657;-69
2022/04/24 09:33:54;;;;;;;10.80;8.63;;;;;;;20.39;32.75;98149.22;5085183;28;20115;-68
2022/04/24 09:36:24;;;;;;;15.38;13.75;;;;;;;21.26;31.68;98153.34;5083323;28;20232;-68
2022/04/24 09:38:49;;;;;;;10.15;9.15;;;;;;;21.70;30.25;98158.72;5083400;28;20387;-68
2022/04/24 09:41:20;;;;;;;10.88;9.48;;;;;;;22.20;31.71;98153.56;5085008;28;20027;-59
2022/04/24 09:43:45;;;;;;;15.82;13.13;;;;;;;23.20;29.48;98149.91;5085817;28;20024;-53
2022/04/24 09:46:11;;;;;;;12.75;9.40;;;;;;;23.51;29.39;98151.38;5089745;28;20050;-56
2022/04/24 09:48:37;;;;;;;18.23;11.05;;;;;;;22.87;29.03;98161.22;5084741;28;20040;-69
2022/04/24 09:51:02;;;;;;;10.63;8.85;;;;;;;22.97;29.23;98158.22;5083736;28;20040;-68
2022/04/24 09:53:29;;;;;;;9.90;8.98;;;;;;;22.49;29.61;98160.66;5083928;28;20070;-68
2022/04/24 09:55:55;;;;;;;11.65;9.05;;;;;;;22.07;30.29;98160.41;5083640;28;20032;-68
2022/04/24 09:58:21;;;;;;;10.13;9.13;;;;;;;22.58;29.02;98164.06;5084390;28;20047;-68
2022/04/24 10:00:47;;;;;;;11.68;8.18;;;;;;;22.68;29.01;98160.03;5065861;28;20052;-68
2022/04/24 10:03:14;;;;;;;8.90;8.00;;;;;;;23.02;28.64;98155.81;5083927;28;20384;-67
2022/04/24 10:05:43;;;;;;;14.43;9.00;;;;;;;22.86;28.91;98172.16;5084562;28;20553;-68
2022/04/24 10:08:09;;;;;;;16.58;9.68;;;;;;;22.12;30.39;98167.06;5082919;28;20035;-68
2022/04/24 10:10:34;;;;;;;11.38;8.95;;;;;;;22.53;29.65;98161.97;5083995;28;20345;-67
2022/04/24 10:13:01;;;;;;;10.75;9.63;;;;;;;22.41;29.51;98167.00;5083967;28;20044;-66
2022/04/24 10:15:28;;;;;;;10.63;8.73;;;;;;;22.93;29.22;98171.19;5084739;28;20040;-68
2022/04/24 10:18:33;;;;;;;10.13;8.65;;;;;;;22.58;29.48;98169.44;5084475;28;20874;-68
2022/04/24 10:21:22;;;;;;;11.90;7.72;;;;;;;23.39;28.35;98159.16;5068621;28;20077;-67
2022/04/24 10:23:48;;;;;;;11.75;10.45;;;;;;;23.50;27.78;98161.28;5083637;28;20561;-66
2022/04/24 10:26:22;;;;;;;12.13;8.98;;;;;;;23.24;28.20;98170.03;5083945;28;20036;-67
2022/04/24 10:28:48;;;;;;;11.67;8.93;;;;;;;23.14;28.34;98162.31;5084048;28;20085;-68
2022/04/24 10:31:16;;;;;;;16.77;10.77;;;;;;;23.53;27.58;98168.97;5083694;28;20414;-68
2022/04/24 10:33:52;;;;;;;10.77;9.63;;;;;;;23.52;27.47;98161.09;5084627;28;20040;-68
2022/04/24 10:36:18;;;;;;;12.45;9.73;;;;;;;23.62;27.71;98156.16;5082286;28;20036;-68
2022/04/24 10:38:59;;;;;;;13.57;9.60;;;;;;;23.28;27.99;98165.91;5083001;28;20032;-66
2022/04/24 10:41:29;;;;;;;13.50;8.77;;;;;;;23.17;28.18;98166.44;5083005;28;20443;-68
2022/04/24 10:44:06;;;;;;;19.50;9.88;;;;;;;23.38;27.87;98164.72;5084763;28;20047;-68
2022/04/24 10:46:35;;;;;;;12.00;9.55;;;;;;;23.05;27.79;98165.31;5084887;28;20032;-69
2022/04/24 10:49:15;;;;;;;12.18;10.48;;;;;;;22.29;29.01;98165.84;5093715;28;20103;-69
2022/04/24 10:51:56;;;;;;;16.05;9.05;;;;;;;21.25;30.82;98170.44;5089753;28;20024;-68
2022/04/24 10:54:34;;;;;;;15.60;9.73;;;;;;;20.95;31.61;98165.88;5080046;28;20056;-67
2022/04/24 10:57:00;;;;;;;13.18;9.70;;;;;;;20.79;32.08;98166.00;5081428;28;20124;-67
2022/04/24 10:59:26;;;;;;;14.68;9.43;;;;;;;20.78;32.18;98167.03;5085137;28;20100;-69
2022/04/24 11:01:58;;;;;;;12.43;9.35;;;;;;;20.15;33.14;98166.25;5084562;28;20040;-69
2022/04/24 11:04:25;;;;;;;13.90;9.60;;;;;;;19.94;33.56;98166.91;5087993;28;20122;-69
2022/04/24 11:06:55;;;;;;;14.10;9.15;;;;;;;19.92;33.61;98160.88;5088256;28;20040;-69
2022/04/24 11:09:22;;;;;;;13.95;9.05;;;;;;;19.74;33.69;98158.47;5088264;28;20092;-69
2022/04/24 11:11:59;;;;;;;10.38;8.52;;;;;;;19.79;33.58;98164.13;5087368;28;20456;-70
2022/04/24 11:14:26;;;;;;;13.38;9.85;;;;;;;19.34;34.31;98170.09;5086035;28;20516;-68
2022/04/24 11:16:57;;;;;;;16.30;10.70;;;;;;;18.86;34.71;98170.84;5071113;28;20032;-69
2022/04/24 11:19:26;;;;;;;18.02;9.50;;;;;;;18.60;35.77;98170.13;5087398;28;20047;-69
2022/04/24 11:21:57;;;;;;;13.00;9.40;;;;;;;18.51;36.31;98166.66;5086822;28;20036;-68
2022/04/24 11:24:31;;;;;;;13.05;10.02;;;;;;;18.70;36.17;98172.63;5085137;28;20436;-67
2022/04/24 11:27:01;;;;;;;10.30;8.60;;;;;;;18.93;34.99;98173.69;5086650;28;20039;-68
2022/04/24 11:29:26;;;;;;;12.20;10.88;;;;;;;18.97;34.58;98172.31;5087022;28;21551;-69
2022/04/24 11:31:53;;;;;;;10.57;8.45;;;;;;;19.01;34.79;98172.81;5086333;28;20043;-67
2022/04/24 11:34:20;;;;;;;13.45;10.15;;;;;;;19.16;35.03;98167.63;5085683;28;20028;-69